Time;durP1;ratioP1;P1;durP2;ratioP2;P2;SDS_P1;SDS_P2;PMS_P1;PMS_P2;Temp;Humidity;BMP_temperature;BMP_pressure;BME280_temperature;BME280_humidity;BME280_pressure;Samples;Min_cycle;Max_cycle;Signal;HPM_P1;HPM_P2
2021/08/16 00:02:23;;;;;;;3.70;1.05;;;18.40;71.90;;;;;;5114742;28;20030;-87
2021/08/16 00:04:49;;;;;;;4.25;1.00;;;18.40;72.50;;;;;;5095614;28;20565;-86
2021/08/16 00:07:14;;;;;;;3.67;0.98;;;18.50;72.20;;;;;;5128246;27;20035;-85
2021/08/16 00:09:40;;;;;;;6.38;2.00;;;18.40;72.40;;;;;;5110561;28;20111;-86
2021/08/16 00:12:06;;;;;;;4.55;1.15;;;18.50;73.30;;;;;;5114213;28;20102;-86
2021/08/16 00:14:32;;;;;;;2.92;0.88;;;18.50;72.50;;;;;;5099962;28;20023;-86
2021/08/16 00:16:58;;;;;;;3.35;0.90;;;18.40;72.60;;;;;;5096513;28;20028;-86
2021/08/16 00:19:25;;;;;;;3.00;1.00;;;18.40;72.70;;;;;;5096014;28;20074;-86
2021/08/16 00:21:52;;;;;;;5.25;1.17;;;18.50;72.60;;;;;;5095890;28;20015;-85
2021/08/16 00:24:19;;;;;;;3.60;1.08;;;18.50;71.80;;;;;;5114148;28;20019;-85
2021/08/16 00:26:45;;;;;;;4.40;1.10;;;18.50;72.30;;;;;;5113202;28;20030;-85
2021/08/16 00:29:11;;;;;;;4.75;1.15;;;18.50;72.50;;;;;;5113911;28;20500;-85
2021/08/16 00:31:36;;;;;;;5.35;1.30;;;18.50;72.10;;;;;;5112353;28;20426;-85
2021/08/16 00:34:02;;;;;;;2.70;1.00;;;18.50;72.10;;;;;;5113691;28;20032;-86
2021/08/16 00:36:27;;;;;;;5.13;1.10;;;18.50;72.40;;;;;;5114117;28;20028;-87
2021/08/16 00:38:53;;;;;;;3.60;1.02;;;18.50;73.30;;;;;;5114007;28;20477;-87
2021/08/16 00:41:19;;;;;;;5.88;1.35;;;18.40;73.20;;;;;;5095703;28;20047;-87
2021/08/16 00:43:45;;;;;;;2.72;0.93;;;18.40;73.20;;;;;;5096286;28;20024;-87
2021/08/16 00:46:13;;;;;;;4.35;0.93;;;18.40;73.10;;;;;;5113749;28;20212;-87
2021/08/16 00:48:41;;;;;;;4.88;0.95;;;18.40;73.10;;;;;;5113322;28;20043;-87
2021/08/16 00:51:07;;;;;;;3.95;1.15;;;18.40;73.40;;;;;;5113711;28;20016;-87
2021/08/16 00:53:33;;;;;;;3.30;1.02;;;18.40;73.70;;;;;;5095237;28;20518;-86
2021/08/16 00:55:59;;;;;;;3.83;1.17;;;18.40;73.50;;;;;;5114214;28;20051;-86
2021/08/16 00:58:25;;;;;;;3.38;1.20;;;18.40;73.50;;;;;;5113347;28;20067;-86
2021/08/16 01:00:57;;;;;;;3.53;0.77;;;18.40;73.70;;;;;;5095018;28;20582;-86
2021/08/16 01:03:24;;;;;;;2.20;1.08;;;18.40;73.40;;;;;;5095170;28;20035;-87
2021/08/16 01:05:50;;;;;;;3.97;1.20;;;18.40;73.40;;;;;;5113771;28;20020;-86
2021/08/16 01:08:15;;;;;;;5.32;1.20;;;18.40;74.30;;;;;;5094671;28;20035;-86
2021/08/16 01:10:41;;;;;;;5.32;1.08;;;18.30;73.70;;;;;;5113931;28;20062;-86
2021/08/16 01:13:07;;;;;;;4.97;1.20;;;18.40;73.60;;;;;;5094250;28;20032;-86
2021/08/16 01:15:33;;;;;;;3.15;0.98;;;18.40;73.20;;;;;;5098219;28;20024;-86
2021/08/16 01:17:59;;;;;;;2.70;1.20;;;18.40;73.80;;;;;;5113195;28;20046;-86
2021/08/16 01:20:25;;;;;;;4.25;0.90;;;18.40;73.50;;;;;;5096758;28;20016;-86
2021/08/16 01:22:51;;;;;;;2.97;0.82;;;18.40;74.70;;;;;;5095197;28;20024;-87
2021/08/16 01:25:17;;;;;;;2.80;1.05;;;18.40;74.10;;;;;;5113507;28;20031;-86
2021/08/16 01:27:43;;;;;;;2.80;0.88;;;18.30;75.00;;;;;;5113088;28;20024;-87
2021/08/16 01:30:12;;;;;;;3.85;1.20;;;18.20;74.70;;;;;;5094053;28;20492;-86
2021/08/16 01:32:38;;;;;;;4.32;1.25;;;18.10;75.60;;;;;;5112765;28;20011;-87
2021/08/16 01:35:04;;;;;;;3.42;0.90;;;17.90;75.90;;;;;;5094985;28;20369;-87
2021/08/16 01:37:30;;;;;;;5.28;1.55;;;17.80;77.90;;;;;;5094086;28;20019;-87
2021/08/16 01:39:56;;;;;;;4.80;1.30;;;17.70;76.60;;;;;;5112573;28;20088;-86
2021/08/16 01:42:22;;;;;;;3.85;1.23;;;17.60;77.20;;;;;;5112683;28;20032;-87
2021/08/16 01:44:48;;;;;;;4.20;1.10;;;17.60;77.50;;;;;;5093840;28;20104;-87
2021/08/16 01:47:13;;;;;;;3.63;1.30;;;17.60;77.90;;;;;;5112890;28;20429;-87
2021/08/16 01:49:39;;;;;;;4.30;1.05;;;17.60;78.00;;;;;;5113317;28;20437;-87
2021/08/16 01:52:05;;;;;;;3.35;1.00;;;17.60;79.80;;;;;;5093866;28;20258;-87
2021/08/16 01:54:31;;;;;;;3.95;1.20;;;17.60;78.30;;;;;;5094295;28;20480;-86
2021/08/16 01:56:56;;;;;;;3.67;1.02;;;17.70;78.10;;;;;;5112137;28;20061;-87
2021/08/16 01:59:22;;;;;;;4.65;1.20;;;17.70;78.00;;;;;;5093761;28;20496;-87
2021/08/16 02:01:47;;;;;;;2.47;1.10;;;17.70;78.30;;;;;;5113185;28;20099;-86
2021/08/16 02:04:13;;;;;;;3.65;1.20;;;17.70;78.60;;;;;;5093963;28;20024;-86
2021/08/16 02:06:39;;;;;;;6.60;1.30;;;17.70;78.90;;;;;;5112116;28;20032;-86
2021/08/16 02:09:04;;;;;;;4.40;1.30;;;17.70;77.90;;;;;;5093893;28;20444;-86
2021/08/16 02:11:30;;;;;;;4.72;1.00;;;17.70;78.70;;;;;;5112575;28;20015;-86
2021/08/16 02:13:56;;;;;;;5.28;1.25;;;17.70;79.20;;;;;;5098041;27;20387;-86
2021/08/16 02:16:21;;;;;;;2.03;0.93;;;17.60;80.00;;;;;;5111980;28;20047;-85
2021/08/16 02:18:47;;;;;;;5.13;1.23;;;17.50;81.10;;;;;;5111767;28;20419;-86
2021/08/16 02:21:13;;;;;;;3.42;1.23;;;17.50;80.70;;;;;;5112255;28;20391;-85
2021/08/16 02:23:39;;;;;;;3.55;1.00;;;17.50;80.00;;;;;;5093433;28;20079;-86
2021/08/16 02:26:04;;;;;;;3.40;1.20;;;17.50;79.20;;;;;;5111651;28;20114;-86
2021/08/16 02:28:32;;;;;;;5.15;1.33;;;17.50;80.20;;;;;;5093685;28;20024;-86
2021/08/16 02:30:57;;;;;;;4.45;1.00;;;17.50;79.80;;;;;;5093863;28;20059;-85
2021/08/16 02:33:23;;;;;;;4.35;0.93;;;17.60;80.30;;;;;;5093168;28;20488;-86
2021/08/16 02:35:49;;;;;;;2.33;0.90;;;17.60;80.40;;;;;;5093739;28;20015;-86
2021/08/16 02:38:15;;;;;;;4.13;0.80;;;17.60;80.80;;;;;;5093865;28;20028;-86
2021/08/16 02:40:40;;;;;;;5.80;1.52;;;17.60;79.80;;;;;;5112390;28;20503;-86
2021/08/16 02:43:06;;;;;;;4.00;1.15;;;17.70;80.10;;;;;;5111600;28;20034;-87
2021/08/16 02:45:32;;;;;;;3.97;1.05;;;17.70;80.50;;;;;;5112015;28;20023;-86
2021/08/16 02:47:58;;;;;;;4.03;1.00;;;17.70;80.20;;;;;;5111934;28;20076;-86
2021/08/16 02:50:24;;;;;;;4.20;2.35;;;17.70;79.90;;;;;;5116319;28;20100;-86
2021/08/16 02:52:51;;;;;;;3.38;0.88;;;17.70;81.30;;;;;;5116735;28;20499;-85
2021/08/16 02:55:17;;;;;;;4.95;1.00;;;17.60;80.40;;;;;;5116137;28;20027;-85
2021/08/16 02:57:42;;;;;;;1.55;0.70;;;17.60;80.90;;;;;;5115657;28;20030;-86
2021/08/16 03:00:09;;;;;;;1.65;0.90;;;17.60;81.00;;;;;;5115966;28;20028;-87
2021/08/16 03:02:34;;;;;;;2.70;1.20;;;17.50;81.50;;;;;;5097541;28;20026;-86
2021/08/16 03:05:00;;;;;;;2.97;1.00;;;17.60;81.20;;;;;;5116242;28;20027;-86
2021/08/16 03:07:26;;;;;;;1.25;0.75;;;17.60;81.40;;;;;;5097828;28;20023;-86
2021/08/16 03:09:51;;;;;;;3.92;1.20;;;17.60;81.30;;;;;;5097149;28;20042;-87
2021/08/16 03:12:18;;;;;;;4.28;0.70;;;17.60;81.20;;;;;;5115357;28;20015;-88
2021/08/16 03:14:45;;;;;;;3.97;1.05;;;17.70;81.60;;;;;;5097284;28;20032;-88
2021/08/16 03:17:11;;;;;;;2.55;1.00;;;17.60;81.50;;;;;;5115649;28;20020;-88
2021/08/16 03:19:37;;;;;;;2.88;0.80;;;17.60;81.00;;;;;;5116410;28;20078;-87
2021/08/16 03:22:03;;;;;;;2.75;0.90;;;17.70;81.40;;;;;;5115702;28;20429;-88
2021/08/16 03:24:30;;;;;;;2.50;1.00;;;17.70;81.50;;;;;;5115436;28;20032;-86
2021/08/16 03:26:56;;;;;;;2.50;0.98;;;17.70;80.90;;;;;;5115275;28;20019;-87
2021/08/16 03:29:22;;;;;;;2.20;0.75;;;17.60;81.40;;;;;;5097144;28;20046;-86
2021/08/16 03:31:47;;;;;;;3.78;1.00;;;17.70;81.10;;;;;;5116042;28;20073;-86
2021/08/16 03:34:13;;;;;;;2.15;0.80;;;17.70;81.70;;;;;;5115453;28;20027;-86
2021/08/16 03:36:39;;;;;;;2.30;0.80;;;17.70;81.70;;;;;;5096730;28;20027;-87
2021/08/16 03:39:04;;;;;;;1.25;0.73;;;17.60;81.30;;;;;;5096381;28;20084;-86
2021/08/16 03:41:30;;;;;;;3.40;0.90;;;17.70;81.80;;;;;;5096307;28;20055;-86
2021/08/16 03:43:56;;;;;;;1.40;0.75;;;17.70;81.60;;;;;;5097443;28;20114;-86
2021/08/16 03:46:22;;;;;;;2.67;0.88;;;17.70;81.20;;;;;;5131061;27;20019;-86
2021/08/16 03:48:47;;;;;;;3.15;0.93;;;17.60;82.40;;;;;;5115197;28;20039;-86
2021/08/16 03:51:13;;;;;;;3.00;0.88;;;17.70;82.20;;;;;;5096745;28;20016;-85
2021/08/16 03:53:39;;;;;;;2.53;0.82;;;17.60;81.50;;;;;;5096498;28;20593;-85
2021/08/16 03:56:06;;;;;;;2.70;1.20;;;17.70;81.60;;;;;;5096507;28;20030;-86
2021/08/16 03:58:32;;;;;;;2.33;0.88;;;17.70;81.20;;;;;;5115359;28;20040;-86
2021/08/16 04:00:58;;;;;;;2.05;0.90;;;17.70;81.90;;;;;;5113759;28;20085;-85
2021/08/16 04:03:23;;;;;;;2.30;1.15;;;17.60;81.80;;;;;;5095015;28;20028;-86
2021/08/16 04:05:49;;;;;;;1.35;0.90;;;17.60;81.60;;;;;;5114355;28;20023;-86
2021/08/16 04:08:15;;;;;;;2.30;0.88;;;17.70;81.40;;;;;;5114210;28;20034;-86
2021/08/16 04:10:40;;;;;;;2.10;0.70;;;17.70;81.80;;;;;;5096379;28;20126;-86
2021/08/16 04:13:06;;;;;;;4.07;0.90;;;17.70;82.50;;;;;;5095249;28;20023;-85
2021/08/16 04:15:32;;;;;;;2.05;0.82;;;17.70;81.60;;;;;;5113886;28;20039;-87
2021/08/16 04:17:57;;;;;;;3.40;1.23;;;17.70;80.80;;;;;;5113809;28;20411;-87
2021/08/16 04:20:24;;;;;;;3.22;1.00;;;17.60;80.70;;;;;;5114253;28;20027;-86
2021/08/16 04:22:50;;;;;;;3.13;1.05;;;17.60;81.60;;;;;;5114509;28;20099;-87
2021/08/16 04:25:18;;;;;;;1.45;0.80;;;17.60;82.20;;;;;;5113481;28;20122;-87
2021/08/16 04:27:44;;;;;;;2.80;1.00;;;17.60;82.20;;;;;;5114287;28;20527;-87
2021/08/16 04:30:11;;;;;;;3.45;1.10;;;17.70;82.20;;;;;;5113700;28;20020;-86
2021/08/16 04:32:37;;;;;;;1.90;1.05;;;17.60;82.30;;;;;;5113704;28;20073;-87
2021/08/16 04:35:04;;;;;;;3.75;1.27;;;17.60;81.70;;;;;;5095639;28;20028;-86
2021/08/16 04:37:35;;;;;;;2.33;0.93;;;17.60;81.90;;;;;;5095523;28;20046;-86
2021/08/16 04:40:00;;;;;;;1.63;0.93;;;17.70;82.00;;;;;;5113184;28;20035;-87
2021/08/16 04:42:26;;;;;;;3.47;1.10;;;17.70;81.80;;;;;;5113896;28;20031;-87
2021/08/16 04:44:51;;;;;;;1.77;1.00;;;17.70;82.10;;;;;;5094833;28;20123;-86
2021/08/16 04:47:17;;;;;;;3.42;1.17;;;17.70;81.90;;;;;;5113234;28;20020;-85
2021/08/16 04:49:43;;;;;;;1.77;0.88;;;17.70;82.20;;;;;;5095986;28;20024;-84
2021/08/16 04:52:08;;;;;;;1.95;0.98;;;17.70;82.90;;;;;;5113425;28;20396;-84
2021/08/16 04:54:34;;;;;;;1.90;1.00;;;17.70;82.20;;;;;;5106119;28;20043;-84
2021/08/16 04:56:59;;;;;;;2.05;1.08;;;17.70;82.60;;;;;;5102882;28;20457;-84
2021/08/16 04:59:25;;;;;;;1.63;1.00;;;17.60;81.90;;;;;;5094415;28;20506;-84
2021/08/16 05:01:50;;;;;;;2.28;1.10;;;17.60;82.20;;;;;;5095331;28;20028;-86
2021/08/16 05:04:16;;;;;;;2.90;1.10;;;17.70;83.70;;;;;;5112977;28;20058;-85
2021/08/16 05:06:43;;;;;;;2.20;0.98;;;17.60;82.60;;;;;;5095306;28;20035;-85
2021/08/16 05:09:09;;;;;;;2.17;1.10;;;17.70;82.50;;;;;;5095585;28;20104;-86
2021/08/16 05:11:35;;;;;;;3.88;1.10;;;17.60;82.90;;;;;;5112426;28;20020;-85
2021/08/16 05:14:01;;;;;;;1.63;0.95;;;17.60;82.90;;;;;;5113547;28;20030;-86
2021/08/16 05:16:27;;;;;;;1.40;1.00;;;17.60;83.20;;;;;;5113374;28;20020;-86
2021/08/16 05:18:54;;;;;;;1.95;1.10;;;17.70;83.10;;;;;;5094179;28;20406;-85
2021/08/16 05:21:21;;;;;;;2.33;1.30;;;17.60;82.90;;;;;;5112612;28;20023;-86
2021/08/16 05:23:47;;;;;;;2.30;1.08;;;17.60;82.90;;;;;;5093747;28;20079;-86
2021/08/16 05:26:13;;;;;;;2.75;1.10;;;17.60;83.20;;;;;;5094960;28;20490;-85
2021/08/16 05:28:38;;;;;;;2.67;1.40;;;17.60;83.10;;;;;;5113049;28;20032;-84
2021/08/16 05:31:04;;;;;;;4.43;1.60;;;17.60;83.30;;;;;;5112395;28;20023;-84
2021/08/16 05:33:30;;;;;;;3.53;1.50;;;17.60;83.50;;;;;;5112297;28;20059;-85
2021/08/16 05:35:55;;;;;;;1.75;1.05;;;17.60;83.40;;;;;;5093554;28;20027;-84
2021/08/16 05:38:21;;;;;;;2.20;1.55;;;17.60;84.10;;;;;;5093598;28;20452;-84
2021/08/16 05:40:47;;;;;;;2.75;1.42;;;17.60;84.00;;;;;;5094781;28;20016;-84
2021/08/16 05:43:12;;;;;;;2.65;1.50;;;17.60;83.70;;;;;;5112401;28;20063;-85
2021/08/16 05:45:38;;;;;;;2.35;1.20;;;17.60;84.00;;;;;;5093269;28;20030;-85
2021/08/16 05:48:04;;;;;;;2.95;1.60;;;17.60;84.30;;;;;;5112026;28;20052;-85
2021/08/16 05:50:29;;;;;;;3.60;1.50;;;17.60;84.50;;;;;;5112277;28;20518;-84
2021/08/16 05:52:55;;;;;;;4.47;1.40;;;17.60;83.90;;;;;;5094168;28;20138;-84
2021/08/16 05:55:21;;;;;;;3.67;1.63;;;17.70;83.40;;;;;;5112372;28;20066;-85
2021/08/16 05:57:47;;;;;;;3.80;1.63;;;17.60;83.90;;;;;;5111987;28;20063;-85
2021/08/16 06:00:14;;;;;;;2.28;1.23;;;17.60;84.90;;;;;;5093041;28;20035;-84
2021/08/16 06:02:40;;;;;;;3.35;1.77;;;17.60;83.70;;;;;;5092532;28;20500;-84
2021/08/16 06:05:06;;;;;;;2.67;1.50;;;17.50;85.20;;;;;;5112067;28;20030;-84
2021/08/16 06:07:32;;;;;;;2.20;1.13;;;17.40;85.90;;;;;;5093962;28;20143;-85
2021/08/16 06:09:58;;;;;;;2.80;1.40;;;17.40;84.70;;;;;;5105712;28;20557;-85
2021/08/16 06:12:23;;;;;;;3.35;1.05;;;17.30;86.00;;;;;;5115809;27;20392;-86
2021/08/16 06:14:49;;;;;;;3.20;1.50;;;17.30;86.30;;;;;;5114711;27;20050;-86
2021/08/16 06:17:15;;;;;;;4.00;1.20;;;17.30;87.20;;;;;;5093459;28;20054;-84
2021/08/16 06:19:41;;;;;;;3.05;1.00;;;17.20;86.00;;;;;;5112834;28;20028;-83
2021/08/16 06:22:07;;;;;;;2.00;1.20;;;17.20;85.90;;;;;;5092968;28;20019;-83
2021/08/16 06:24:36;;;;;;;3.65;1.40;;;17.20;86.60;;;;;;5111068;28;20483;-85
2021/08/16 06:27:05;;;;;;;3.35;1.10;;;17.20;86.00;;;;;;5111546;28;20016;-85
2021/08/16 06:29:31;;;;;;;3.33;1.30;;;17.20;85.60;;;;;;5093523;28;20542;-85
2021/08/16 06:31:57;;;;;;;4.22;1.42;;;17.20;86.20;;;;;;5094067;28;20106;-85
2021/08/16 06:34:23;;;;;;;3.78;1.00;;;17.20;86.00;;;;;;5093490;28;20032;-86
2021/08/16 06:36:56;;;;;;;3.30;1.30;;;17.20;85.80;;;;;;5111329;28;20024;-85
2021/08/16 06:39:23;;;;;;;4.35;1.60;;;17.30;86.00;;;;;;5092746;28;20040;-85
2021/08/16 06:41:50;;;;;;;3.10;1.15;;;17.30;85.50;;;;;;5111466;28;20012;-85
2021/08/16 06:44:18;;;;;;;2.38;1.15;;;17.30;84.40;;;;;;5111883;28;20043;-85
2021/08/16 06:46:47;;;;;;;4.95;1.35;;;17.40;84.70;;;;;;5093549;28;20444;-84
2021/08/16 06:49:14;;;;;;;4.43;1.30;;;17.40;84.90;;;;;;5110787;28;21048;-84
2021/08/16 06:51:39;;;;;;;4.18;1.70;;;17.50;84.90;;;;;;5092214;28;20093;-84
2021/08/16 06:54:05;;;;;;;5.03;1.42;;;17.40;84.60;;;;;;5111114;28;20507;-84
2021/08/16 06:56:31;;;;;;;6.32;1.65;;;17.50;84.60;;;;;;5110412;28;20123;-84
2021/08/16 06:58:57;;;;;;;4.63;1.42;;;17.50;84.10;;;;;;5107321;28;20028;-83
2021/08/16 07:01:25;;;;;;;6.07;1.50;;;17.50;83.90;;;;;;5093117;28;20092;-84
2021/08/16 07:03:51;;;;;;;4.28;1.45;;;17.50;83.30;;;;;;5110681;28;20024;-83
2021/08/16 07:06:16;;;;;;;5.45;1.40;;;17.50;82.80;;;;;;5111037;28;20019;-84
2021/08/16 07:08:42;;;;;;;3.67;1.27;;;17.60;82.40;;;;;;5111305;28;20070;-84
2021/08/16 07:11:08;;;;;;;4.50;1.33;;;17.60;81.70;;;;;;5107724;28;20015;-84
2021/08/16 07:13:33;;;;;;;5.82;1.40;;;17.60;81.70;;;;;;5109915;28;20035;-84
2021/08/16 07:15:59;;;;;;;3.40;1.40;;;17.70;81.60;;;;;;5066794;28;20059;-84
2021/08/16 07:18:25;;;;;;;7.15;1.70;;;17.70;82.10;;;;;;5095727;28;21681;-86
2021/08/16 07:20:50;;;;;;;5.05;1.52;;;17.70;81.60;;;;;;5079006;28;20043;-84
2021/08/16 07:23:16;;;;;;;5.03;1.55;;;17.70;80.40;;;;;;5101014;28;20031;-84
2021/08/16 07:25:41;;;;;;;3.60;1.15;;;17.70;79.20;;;;;;5084188;28;20063;-85
2021/08/16 07:28:08;;;;;;;3.45;1.13;;;17.80;80.80;;;;;;5105926;28;20049;-86
2021/08/16 07:30:34;;;;;;;5.28;1.50;;;17.80;80.60;;;;;;5110885;28;20028;-85
2021/08/16 07:33:00;;;;;;;7.15;1.40;;;17.90;80.30;;;;;;5110260;28;20042;-87
2021/08/16 07:35:26;;;;;;;6.30;1.27;;;17.90;79.50;;;;;;5112355;28;20059;-85
2021/08/16 07:37:51;;;;;;;6.68;1.70;;;17.90;80.10;;;;;;5115246;27;20052;-85
2021/08/16 07:40:20;;;;;;;4.68;1.50;;;17.90;79.20;;;;;;5113702;27;20171;-87
2021/08/16 07:42:45;;;;;;;5.97;1.52;;;17.90;79.00;;;;;;5114527;28;20032;-87
2021/08/16 07:45:11;;;;;;;5.35;1.30;;;17.90;78.20;;;;;;5096201;28;20445;-85
2021/08/16 07:47:37;;;;;;;5.60;1.30;;;17.90;78.70;;;;;;5112706;27;20035;-86
2021/08/16 07:50:06;;;;;;;5.55;1.42;;;18.00;78.60;;;;;;5098835;28;20035;-86
2021/08/16 07:52:34;;;;;;;5.47;1.40;;;18.00;78.30;;;;;;5099816;28;20530;-86
2021/08/16 07:55:00;;;;;;;5.38;1.30;;;18.00;77.40;;;;;;5111212;28;20055;-86
2021/08/16 07:57:25;;;;;;;6.90;1.63;;;18.10;78.80;;;;;;5111410;28;20488;-85
2021/08/16 07:59:51;;;;;;;7.25;1.52;;;18.10;77.30;;;;;;5093755;28;20039;-86
2021/08/16 08:02:17;;;;;;;6.35;1.60;;;18.10;76.40;;;;;;5113307;28;20426;-85
2021/08/16 08:04:42;;;;;;;5.15;1.70;;;18.10;76.90;;;;;;5095797;28;20518;-84
2021/08/16 08:07:08;;;;;;;5.05;1.50;;;18.20;77.70;;;;;;5095377;28;20495;-84
2021/08/16 08:09:33;;;;;;;5.63;1.50;;;18.20;77.30;;;;;;5094665;28;20066;-85
2021/08/16 08:11:59;;;;;;;4.18;1.50;;;18.20;75.00;;;;;;5114557;28;20383;-78
2021/08/16 08:14:25;;;;;;;8.40;1.55;;;18.20;74.30;;;;;;5113990;28;20053;-82
2021/08/16 08:16:51;;;;;;;5.35;1.33;;;18.30;75.00;;;;;;5114929;28;20027;-82
2021/08/16 08:19:16;;;;;;;4.20;1.52;;;18.40;75.90;;;;;;5113335;27;20085;-83
2021/08/16 08:21:42;;;;;;;4.38;1.17;;;18.40;74.90;;;;;;5100399;28;20031;-83
2021/08/16 08:24:08;;;;;;;2.78;1.30;;;18.40;73.00;;;;;;5114480;28;20023;-82
2021/08/16 08:26:33;;;;;;;3.15;1.25;;;18.40;73.50;;;;;;5096620;28;20016;-82
2021/08/16 08:28:59;;;;;;;5.03;1.40;;;18.40;73.40;;;;;;5126593;27;20023;-81
2021/08/16 08:31:26;;;;;;;6.47;1.48;;;18.40;72.90;;;;;;5095752;28;20020;-81
2021/08/16 08:33:52;;;;;;;4.32;1.38;;;18.30;72.00;;;;;;5096383;28;20115;-83
2021/08/16 08:36:18;;;;;;;4.78;1.50;;;18.40;72.50;;;;;;5096040;28;20026;-83
2021/08/16 08:38:44;;;;;;;3.60;1.60;;;18.50;71.60;;;;;;5090142;28;20040;-78
2021/08/16 08:41:15;;;;;;;3.95;1.40;;;18.50;72.10;;;;;;5112114;28;20054;-88
2021/08/16 08:43:42;;;;;;;4.03;1.35;;;18.70;72.80;;;;;;5096350;28;20031;-84
2021/08/16 08:46:08;;;;;;;4.50;1.80;;;18.80;71.90;;;;;;5111452;28;20120;-84
2021/08/16 08:48:34;;;;;;;4.88;1.58;;;18.80;69.80;;;;;;5091699;28;20020;-81
2021/08/16 08:51:00;;;;;;;7.43;1.67;;;18.70;69.60;;;;;;5092958;28;20024;-84
2021/08/16 08:53:25;;;;;;;6.32;1.63;;;18.60;68.90;;;;;;5110260;28;20439;-84
2021/08/16 08:55:51;;;;;;;3.20;1.45;;;18.60;68.50;;;;;;5113830;28;20082;-84
2021/08/16 08:58:18;;;;;;;2.30;1.38;;;18.60;68.80;;;;;;5093884;28;20030;-86
2021/08/16 09:00:44;;;;;;;4.88;1.58;;;18.60;67.90;;;;;;5093604;28;20080;-84
2021/08/16 09:03:10;;;;;;;6.00;1.80;;;18.70;66.80;;;;;;5094424;28;20020;-81
2021/08/16 09:05:58;;;;;;;4.50;1.60;;;18.80;66.90;;;;;;5113080;28;20484;-85
2021/08/16 09:08:25;;;;;;;3.67;1.30;;;18.90;66.90;;;;;;5112240;28;20051;-89
2021/08/16 09:10:51;;;;;;;2.88;1.42;;;19.00;66.80;;;;;;5095316;28;20601;-88
2021/08/16 09:13:25;;;;;;;4.30;1.80;;;19.10;67.10;;;;;;5094070;28;20028;-87
2021/08/16 09:15:53;;;;;;;3.72;1.52;;;19.20;65.60;;;;;;5112999;28;20077;-86
2021/08/16 09:18:29;;;;;;;5.28;1.50;;;19.10;65.50;;;;;;5112339;28;20090;-86
2021/08/16 09:20:54;;;;;;;5.65;1.80;;;19.00;65.30;;;;;;5113322;28;20026;-90
2021/08/16 09:23:20;;;;;;;5.57;1.80;;;18.90;65.40;;;;;;5113995;28;20015;-86
2021/08/16 09:25:55;;;;;;;3.83;1.60;;;18.90;67.00;;;;;;5113333;28;20031;-87
2021/08/16 09:28:28;;;;;;;4.25;1.80;;;18.80;66.00;;;;;;5114447;27;20024;-86
2021/08/16 09:30:54;;;;;;;4.85;1.55;;;19.00;66.70;;;;;;5090570;28;20031;-88
2021/08/16 09:33:21;;;;;;;2.80;1.40;;;19.10;64.10;;;;;;5112786;28;20403;-87
2021/08/16 09:35:55;;;;;;;4.78;1.63;;;19.10;61.40;;;;;;5093133;28;20059;-85
2021/08/16 09:38:50;;;;;;;3.05;1.50;;;19.20;62.50;;;;;;5094888;28;20111;-86
2021/08/16 09:41:28;;;;;;;3.70;1.70;;;19.10;60.60;;;;;;5071318;28;20572;-86
2021/08/16 09:44:07;;;;;;;5.32;1.40;;;19.00;61.00;;;;;;5071168;28;20499;-86
2021/08/16 09:46:33;;;;;;;4.30;1.70;;;19.10;63.00;;;;;;5071177;28;20040;-86
2021/08/16 09:49:02;;;;;;;3.33;1.58;;;19.20;64.10;;;;;;5054503;28;20025;-85
2021/08/16 09:51:29;;;;;;;2.90;1.65;;;19.20;62.60;;;;;;5054264;28;20132;-86
2021/08/16 09:53:54;;;;;;;3.90;1.60;;;19.20;60.30;;;;;;5063027;28;20441;-86
2021/08/16 09:56:21;;;;;;;5.50;1.63;;;19.10;60.90;;;;;;5050959;28;20073;-88
2021/08/16 09:58:48;;;;;;;4.47;1.60;;;19.10;61.30;;;;;;5049764;28;20036;-86
2021/08/16 10:01:14;;;;;;;4.40;1.70;;;19.20;60.80;;;;;;5051382;28;20025;-85
2021/08/16 10:03:41;;;;;;;5.15;2.10;;;19.30;61.00;;;;;;5051046;28;20417;-87
2021/08/16 10:06:08;;;;;;;3.53;1.70;;;19.40;61.70;;;;;;5051075;28;20126;-85
2021/08/16 10:08:43;;;;;;;3.95;1.90;;;19.40;60.60;;;;;;5050990;28;20025;-86
2021/08/16 10:11:13;;;;;;;5.05;1.80;;;19.60;61.00;;;;;;5067457;28;20037;-86
2021/08/16 10:13:40;;;;;;;5.50;2.10;;;19.60;58.90;;;;;;5050722;28;20029;-86
2021/08/16 10:16:14;;;;;;;5.18;2.20;;;19.70;59.90;;;;;;5060806;28;20476;-86
2021/08/16 10:18:44;;;;;;;;;;;19.80;61.30;;;;;;5109877;28;20050;-84
2021/08/16 10:21:15;;;;;;;4.90;1.88;;;19.90;60.80;;;;;;5100463;28;19933;-84
2021/08/16 10:23:50;;;;;;;3.33;1.77;;;20.00;60.00;;;;;;5093346;28;20034;-82
2021/08/16 10:26:30;;;;;;;4.32;1.90;;;20.00;60.10;;;;;;5110812;28;20047;-81
2021/08/16 10:29:01;;;;;;;4.65;1.77;;;20.00;59.80;;;;;;5110330;27;20016;-81
2021/08/16 10:31:29;;;;;;;4.13;1.98;;;20.10;59.40;;;;;;5110270;28;20036;-86
2021/08/16 10:33:55;;;;;;;5.40;2.20;;;20.10;59.70;;;;;;5111284;28;20020;-88
2021/08/16 10:36:23;;;;;;;6.03;2.33;;;20.20;59.50;;;;;;5091894;28;20059;-84
2021/08/16 10:38:51;;;;;;;6.05;1.90;;;20.30;59.50;;;;;;5091862;28;20043;-86
2021/08/16 10:41:24;;;;;;;4.70;2.30;;;20.40;59.60;;;;;;5110192;28;20069;-86
2021/08/16 10:43:50;;;;;;;4.65;1.90;;;20.50;59.00;;;;;;5110874;28;20020;-86
2021/08/16 10:46:23;;;;;;;5.45;1.90;;;20.50;58.80;;;;;;5110440;28;20084;-86
2021/08/16 10:49:03;;;;;;;3.90;2.00;;;20.50;59.30;;;;;;5107926;28;20035;-85
2021/08/16 10:51:48;;;;;;;6.28;2.00;;;20.50;60.20;;;;;;5109650;28;20031;-85
2021/08/16 10:54:24;;;;;;;7.38;2.05;;;20.50;60.50;;;;;;5111859;28;20093;-85
2021/08/16 10:56:52;;;;;;;4.65;1.80;;;20.50;59.80;;;;;;5112504;28;20034;-86
2021/08/16 10:59:22;;;;;;;4.18;1.85;;;20.50;60.20;;;;;;5111789;28;20114;-91
2021/08/16 11:01:49;;;;;;;4.35;2.10;;;20.50;59.50;;;;;;5113465;28;20027;-86
2021/08/16 11:04:17;;;;;;;3.58;2.10;;;20.50;59.20;;;;;;5092685;28;20084;-83
2021/08/16 11:06:53;;;;;;;4.78;2.00;;;20.60;59.00;;;;;;5109620;28;20032;-81
2021/08/16 11:09:25;;;;;;;3.85;1.83;;;20.70;59.80;;;;;;5090546;28;20020;-85
2021/08/16 11:12:05;;;;;;;3.83;1.80;;;20.60;59.40;;;;;;5114781;28;20040;-84
2021/08/16 11:14:37;;;;;;;4.00;1.90;;;20.50;59.40;;;;;;5103410;28;20118;-85
2021/08/16 11:17:04;;;;;;;3.67;1.77;;;20.60;60.00;;;;;;5114114;28;20472;-86
2021/08/16 11:19:46;;;;;;;3.95;1.70;;;20.70;59.50;;;;;;5114393;28;20650;-88
2021/08/16 11:22:13;;;;;;;3.40;1.60;;;20.40;59.00;;;;;;5117060;28;20027;-81
2021/08/16 11:24:41;;;;;;;5.93;1.95;;;20.60;60.00;;;;;;5094289;28;20039;-83
2021/08/16 11:27:09;;;;;;;3.42;1.67;;;20.70;59.40;;;;;;5114730;28;20031;-81
2021/08/16 11:29:36;;;;;;;5.03;1.90;;;20.70;58.40;;;;;;5093662;28;20471;-87
2021/08/16 11:32:03;;;;;;;5.90;1.90;;;20.60;57.70;;;;;;5115319;28;20050;-89
2021/08/16 11:34:32;;;;;;;4.82;1.90;;;20.50;58.00;;;;;;5114550;28;20034;-84
2021/08/16 11:36:59;;;;;;;4.53;2.25;;;20.50;58.10;;;;;;5114461;28;20138;-85
2021/08/16 11:39:34;;;;;;;3.72;1.77;;;20.40;58.80;;;;;;5114200;28;20050;-81
2021/08/16 11:42:02;;;;;;;4.68;1.90;;;20.30;59.80;;;;;;5095141;28;20039;-89
2021/08/16 11:44:29;;;;;;;5.13;1.80;;;20.50;60.60;;;;;;5112871;28;20058;-83
2021/08/16 11:47:00;;;;;;;3.60;1.75;;;20.70;59.80;;;;;;5114216;28;20094;-84
2021/08/16 11:49:34;;;;;;;3.90;1.90;;;20.90;58.50;;;;;;5113117;28;20031;-81
2021/08/16 11:52:01;;;;;;;6.32;2.17;;;20.90;58.40;;;;;;5098131;27;20070;-82
2021/08/16 11:54:32;;;;;;;5.05;1.90;;;21.00;59.00;;;;;;5113542;28;20050;-82
2021/08/16 11:57:00;;;;;;;3.78;1.77;;;21.00;58.90;;;;;;5118654;27;20028;-81
2021/08/16 11:59:26;;;;;;;3.75;1.55;;;21.00;59.50;;;;;;5113578;28;20091;-83
2021/08/16 12:01:55;;;;;;;4.97;1.73;;;21.00;58.70;;;;;;5101127;27;20488;-81
2021/08/16 12:04:21;;;;;;;3.65;1.75;;;21.10;59.10;;;;;;5113989;28;20042;-81
2021/08/16 12:06:52;;;;;;;4.53;1.70;;;21.10;60.10;;;;;;5113535;28;20022;-82
2021/08/16 12:09:18;;;;;;;2.83;1.63;;;21.20;60.00;;;;;;5096473;28;20511;-81
2021/08/16 12:11:56;;;;;;;5.80;1.98;;;21.20;58.80;;;;;;5114819;28;20019;-81
2021/08/16 12:14:30;;;;;;;5.65;1.85;;;21.00;59.20;;;;;;5115074;28;20035;-81
2021/08/16 12:16:56;;;;;;;6.63;2.10;;;21.00;60.60;;;;;;5114738;28;20012;-82
2021/08/16 12:19:23;;;;;;;4.80;1.80;;;21.10;59.80;;;;;;5113891;28;20079;-82
2021/08/16 12:22:03;;;;;;;3.72;1.70;;;21.20;59.70;;;;;;5112689;28;20027;-80
2021/08/16 12:24:29;;;;;;;4.47;1.70;;;21.30;58.90;;;;;;5092790;28;20050;-80
2021/08/16 12:27:03;;;;;;;4.30;1.65;;;21.30;58.60;;;;;;5119681;27;20500;-81
2021/08/16 12:29:41;;;;;;;4.28;1.80;;;21.10;58.90;;;;;;5097944;28;20015;-81
2021/08/16 12:32:21;;;;;;;3.78;1.55;;;20.70;59.70;;;;;;5095899;28;20065;-81
2021/08/16 12:34:47;;;;;;;5.50;1.85;;;20.60;61.00;;;;;;5113154;28;20491;-81
2021/08/16 12:37:27;;;;;;;4.18;1.52;;;20.60;61.00;;;;;;5113492;28;21065;-81
2021/08/16 12:40:08;;;;;;;6.68;2.47;;;20.70;61.20;;;;;;5113072;28;20050;-82
2021/08/16 12:42:34;;;;;;;5.38;2.25;;;20.80;61.50;;;;;;5093389;28;20059;-81
2021/08/16 12:45:00;;;;;;;5.70;2.25;;;21.00;60.40;;;;;;5113653;28;20028;-81
2021/08/16 12:47:32;;;;;;;3.88;2.38;;;20.90;58.90;;;;;;5113422;28;20024;-81
2021/08/16 12:50:03;;;;;;;6.68;2.45;;;20.90;58.40;;;;;;5112747;28;20019;-81